createdAt,value
2023-04-02T00:00:21.620Z,5.12
2023-04-02T00:02:57.799Z,5.18
2023-04-02T00:05:54.172Z,5.09
2023-04-02T00:08:29.971Z,5.17
2023-04-02T00:10:59.965Z,5.21
2023-04-02T00:13:37.030Z,5.26
2023-04-02T00:16:08.070Z,5.25
2023-04-02T00:18:42.072Z,5.25
2023-04-02T00:21:14.971Z,5.31
2023-04-02T00:23:45.342Z,5.33
2023-04-02T00:26:25.570Z,5.33
2023-04-02T00:28:54.393Z,5.27
2023-04-02T00:31:23.455Z,5.33
2023-04-02T00:33:52.173Z,5.34
2023-04-02T00:36:22.184Z,5.40
2023-04-02T00:38:52.670Z,5.36
2023-04-02T00:41:24.231Z,5.46
2023-04-02T00:43:57.695Z,5.41
2023-04-02T00:46:32.551Z,5.39
2023-04-02T00:49:05.825Z,5.42
2023-04-02T00:51:37.060Z,5.43
2023-04-02T00:54:08.583Z,5.45
2023-04-02T00:56:41.512Z,5.51
2023-04-02T00:59:19.625Z,5.43
2023-04-02T01:01:54.415Z,5.50
2023-04-02T01:04:34.308Z,5.50
2023-04-02T01:07:09.363Z,5.59
2023-04-02T01:09:48.587Z,5.56
2023-04-02T01:12:29.533Z,5.55
2023-04-02T01:15:05.561Z,5.61
2023-04-02T01:17:48.947Z,5.62
2023-04-02T01:20:46.624Z,5.67
2023-04-02T01:23:17.116Z,5.57
2023-04-02T01:25:51.353Z,5.53
2023-04-02T01:28:22.439Z,5.56
2023-04-02T01:30:54.593Z,5.65
2023-04-02T01:33:25.620Z,5.61
2023-04-02T01:36:02.041Z,5.64
2023-04-02T01:38:35.526Z,5.71
2023-04-02T01:41:09.368Z,5.65
2023-04-02T01:43:41.674Z,5.59
2023-04-02T01:49:05.649Z,5.61
2023-04-02T01:51:36.136Z,5.66
2023-04-02T01:54:07.498Z,5.65
2023-04-02T01:56:36.831Z,5.66
2023-04-02T01:59:07.005Z,5.70
2023-04-02T02:01:43.463Z,5.71
2023-04-02T02:04:15.021Z,5.71
2023-04-02T02:06:44.044Z,5.73
2023-04-02T02:09:17.376Z,5.70
2023-04-02T02:11:52.398Z,5.72
2023-04-02T02:14:23.462Z,5.75
2023-04-02T02:17:17.520Z,5.69
2023-04-02T02:19:49.394Z,5.73
2023-04-02T02:22:22.706Z,5.71
2023-04-02T02:24:51.582Z,5.71
2023-04-02T02:27:43.590Z,5.71
2023-04-02T02:30:16.875Z,5.75
2023-04-02T02:32:53.538Z,5.82
2023-04-02T02:35:27.246Z,5.82
2023-04-02T02:37:58.705Z,5.86
2023-04-02T02:40:31.199Z,5.85
2023-04-02T02:43:03.480Z,5.88
2023-04-02T02:45:39.128Z,5.84
2023-04-02T02:48:12.638Z,5.86
2023-04-02T02:50:43.569Z,5.92
2023-04-02T02:53:19.325Z,5.90
2023-04-02T02:55:49.679Z,5.88
2023-04-02T02:58:27.624Z,5.86
2023-04-02T03:01:09.952Z,5.85
2023-04-02T03:03:41.241Z,5.88
2023-04-02T03:06:17.223Z,5.93
2023-04-02T03:08:52.961Z,5.91
2023-04-02T03:11:29.090Z,5.89
2023-04-02T03:14:08.233Z,5.93
2023-04-02T03:16:38.629Z,5.94
2023-04-02T03:19:10.687Z,5.92
2023-04-02T03:21:46.342Z,5.91
2023-04-02T03:24:19.387Z,5.95
2023-04-02T03:26:51.075Z,5.94
2023-04-02T03:29:22.372Z,5.99
2023-04-02T03:31:55.766Z,5.98
2023-04-02T03:34:26.858Z,5.99
2023-04-02T03:37:01.305Z,5.99
2023-04-02T03:39:35.036Z,6.05
2023-04-02T03:42:10.244Z,6.02
2023-04-02T03:44:44.882Z,6.04
2023-04-02T03:47:17.129Z,6.06
2023-04-02T03:49:49.710Z,6.06
2023-04-02T03:52:24.608Z,6.08
2023-04-02T03:54:54.508Z,6.10
2023-04-02T03:57:32.172Z,6.08
2023-04-02T04:00:05.450Z,6.13
2023-04-02T04:02:46.006Z,6.17
2023-04-02T04:05:24.606Z,6.14
2023-04-02T04:08:03.166Z,6.09
2023-04-02T04:10:32.250Z,6.05
2023-04-02T04:13:06.092Z,6.12
2023-04-02T04:15:38.655Z,6.08
2023-04-02T04:18:14.011Z,6.08
2023-04-02T04:20:49.838Z,6.16
2023-04-02T04:23:30.175Z,6.14
2023-04-02T04:26:05.620Z,6.17
2023-04-02T04:28:41.711Z,6.15
2023-04-02T04:31:21.549Z,6.17
2023-04-02T04:33:56.196Z,6.17
2023-04-02T04:36:31.641Z,6.13
2023-04-02T04:39:10.050Z,6.16
2023-04-02T04:41:40.736Z,6.19
2023-04-02T04:44:17.448Z,6.26
2023-04-02T04:46:53.589Z,6.28
2023-04-02T04:49:27.538Z,6.36
2023-04-02T04:51:59.483Z,6.41
2023-04-02T04:54:30.202Z,6.41
2023-04-02T04:57:03.506Z,6.38
2023-04-02T04:59:34.792Z,6.32
2023-04-02T05:02:07.910Z,6.36
2023-04-02T05:04:39.492Z,6.37
2023-04-02T05:07:15.816Z,6.39
2023-04-02T05:09:54.153Z,6.41
2023-04-02T05:12:32.102Z,6.40
2023-04-02T05:15:04.678Z,6.47
2023-04-02T05:17:37.299Z,6.43
2023-04-02T05:20:16.580Z,6.39
2023-04-02T05:22:52.969Z,6.31
2023-04-02T05:25:24.672Z,6.39
2023-04-02T05:27:59.424Z,6.37
2023-04-02T05:30:49.553Z,6.38
2023-04-02T05:33:25.185Z,6.47
2023-04-02T05:35:59.531Z,6.38
2023-04-02T05:38:30.818Z,6.40
2023-04-02T05:41:06.647Z,6.40
2023-04-02T05:43:36.934Z,6.39
2023-04-02T05:46:14.875Z,6.41
2023-04-02T05:48:46.488Z,6.60
2023-04-02T05:51:21.018Z,6.62
2023-04-02T05:53:53.755Z,6.72
2023-04-02T05:56:29.470Z,6.61
2023-04-02T05:59:07.749Z,6.71
2023-04-02T06:01:43.269Z,6.76
2023-04-02T06:04:22.525Z,6.76
2023-04-02T06:06:56.001Z,6.90
2023-04-02T06:09:32.091Z,6.84
2023-04-02T06:12:10.932Z,7.00
2023-04-02T06:14:39.635Z,6.91
2023-04-02T06:17:12.255Z,6.90
2023-04-02T06:19:41.413Z,6.87
2023-04-02T06:22:21.569Z,7.00
2023-04-02T06:24:56.606Z,6.94
2023-04-02T06:27:27.900Z,6.93
2023-04-02T06:30:01.668Z,6.95
2023-04-02T06:32:32.569Z,7.07
2023-04-02T06:35:02.055Z,7.05
2023-04-02T06:37:35.027Z,6.83
2023-04-02T06:40:30.051Z,7.16
2023-04-02T06:43:02.605Z,7.31
2023-04-02T06:45:53.407Z,7.16
2023-04-02T06:48:46.392Z,7.32
2023-04-02T06:51:17.010Z,7.47
2023-04-02T06:53:50.624Z,7.24
2023-04-02T06:56:27.855Z,7.53
2023-04-02T06:58:58.246Z,7.70
2023-04-02T07:01:33.863Z,7.77
2023-04-02T07:04:02.596Z,7.89
2023-04-02T07:06:36.866Z,7.81
2023-04-02T07:09:09.212Z,7.84
2023-04-02T07:11:40.912Z,7.84
2023-04-02T07:14:13.297Z,7.84
2023-04-02T07:16:43.238Z,7.70
2023-04-02T07:19:18.723Z,7.78
2023-04-02T07:21:47.936Z,7.89
2023-04-02T07:24:16.644Z,7.96
2023-04-02T07:26:46.219Z,8.01
2023-04-02T07:29:18.139Z,7.86
2023-04-02T07:31:46.737Z,7.71
2023-04-02T07:34:17.876Z,7.71
2023-04-02T07:36:46.404Z,7.83
2023-04-02T07:39:17.055Z,7.75
2023-04-02T07:41:53.916Z,7.74
2023-04-02T07:44:24.096Z,7.71
2023-04-02T07:46:52.523Z,7.64
2023-04-02T07:49:21.584Z,7.61
2023-04-02T07:51:51.186Z,7.82
2023-04-02T07:54:21.775Z,8.02
2023-04-02T07:56:50.513Z,8.07
2023-04-02T07:59:19.090Z,8.06
2023-04-02T08:01:51.018Z,8.17
2023-04-02T08:04:21.959Z,8.33
2023-04-02T08:06:53.036Z,8.46
2023-04-02T08:09:24.322Z,8.19
2023-04-02T08:11:52.863Z,8.22
2023-04-02T08:14:21.317Z,8.15
2023-04-02T08:16:53.919Z,8.24
2023-04-02T08:19:24.128Z,8.08
2023-04-02T08:21:54.923Z,8.12
2023-04-02T08:24:24.286Z,8.16
2023-04-02T08:26:53.659Z,7.90
2023-04-02T08:29:25.136Z,7.83
2023-04-02T08:31:55.057Z,8.01
2023-04-02T08:34:23.416Z,7.78
2023-04-02T08:36:52.004Z,7.97
2023-04-02T08:39:20.432Z,8.22
2023-04-02T08:41:53.941Z,8.08
2023-04-02T08:44:44.548Z,8.14
2023-04-02T08:47:20.633Z,7.87
2023-04-02T08:49:52.572Z,8.10
2023-04-02T08:52:26.273Z,8.01
2023-04-02T08:54:58.425Z,8.01
2023-04-02T08:57:36.339Z,8.04
2023-04-02T09:00:13.809Z,8.00
2023-04-02T09:02:47.390Z,7.78
2023-04-02T09:05:20.003Z,7.88
2023-04-02T09:07:48.882Z,7.65
2023-04-02T09:10:17.909Z,7.76
2023-04-02T09:12:49.888Z,7.71
2023-04-02T09:15:23.631Z,7.63
2023-04-02T09:17:59.675Z,7.85
2023-04-02T09:20:29.467Z,7.77
2023-04-02T09:22:59.043Z,7.80
2023-04-02T09:25:29.921Z,7.82
2023-04-02T09:27:59.897Z,7.89
2023-04-02T09:30:41.626Z,8.07
2023-04-02T09:33:12.027Z,8.06
2023-04-02T09:35:56.560Z,7.88
2023-04-02T09:38:30.908Z,7.71
2023-04-02T09:41:08.701Z,7.84
2023-04-02T09:43:38.763Z,7.66
2023-04-02T09:46:16.020Z,7.98
2023-04-02T09:48:50.819Z,8.02
2023-04-02T09:51:21.687Z,8.10
2023-04-02T09:53:56.370Z,8.08
2023-04-02T09:56:26.816Z,8.21
2023-04-02T09:59:07.676Z,8.04
2023-04-02T10:01:39.237Z,8.33
2023-04-02T10:04:36.751Z,8.36
2023-04-02T10:07:06.873Z,8.37
2023-04-02T10:09:37.613Z,8.53
2023-04-02T10:12:08.257Z,8.63
2023-04-02T10:14:39.187Z,8.64
2023-04-02T10:17:12.329Z,8.25
2023-04-02T10:19:44.476Z,8.55
2023-04-02T10:22:15.179Z,8.62
2023-04-02T10:24:43.934Z,8.56
2023-04-02T10:27:25.866Z,8.65
2023-04-02T10:30:05.676Z,8.99
2023-04-02T10:32:38.884Z,9.38
2023-04-02T10:35:17.341Z,9.41
2023-04-02T10:38:15.968Z,9.74
2023-04-02T10:40:47.897Z,9.18
2023-04-02T10:43:45.790Z,9.33
2023-04-02T10:46:24.923Z,9.82
2023-04-02T10:49:00.839Z,9.98
2023-04-02T10:51:44.127Z,10.36
2023-04-02T10:54:24.333Z,10.30
2023-04-02T10:56:54.991Z,9.84
2023-04-02T10:59:25.128Z,9.98
2023-04-02T11:01:54.703Z,10.18
2023-04-02T11:04:26.154Z,10.27
2023-04-02T11:07:11.224Z,10.28
2023-04-02T11:09:44.273Z,10.58
2023-04-02T11:12:21.761Z,10.82
2023-04-02T11:14:50.511Z,10.69
2023-04-02T11:17:19.823Z,9.91
2023-04-02T11:19:48.510Z,10.00
2023-04-02T11:22:20.065Z,10.28
2023-04-02T11:24:49.885Z,9.91
2023-04-02T11:27:41.004Z,10.02
2023-04-02T11:30:22.717Z,9.76
2023-04-02T11:32:51.877Z,9.67
2023-04-02T11:35:40.315Z,9.67
2023-04-02T11:38:52.934Z,9.95
2023-04-02T11:42:05.241Z,10.14
2023-04-02T11:44:36.979Z,9.85
2023-04-02T11:47:22.474Z,9.76
2023-04-02T11:50:02.739Z,9.87
2023-04-02T11:52:38.035Z,9.72
2023-04-02T11:55:38.832Z,9.51
2023-04-02T11:58:39.900Z,9.67
2023-04-02T12:01:44.189Z,9.80
2023-04-02T12:04:52.677Z,9.98
2023-04-02T12:07:35.227Z,10.20
2023-04-02T12:10:18.237Z,9.51
2023-04-02T12:12:47.584Z,9.84
2023-04-02T12:15:36.044Z,10.11
2023-04-02T12:18:07.331Z,10.48
2023-04-02T12:20:40.460Z,10.51
2023-04-02T12:23:18.875Z,10.45
2023-04-02T12:25:55.987Z,10.55
2023-04-02T12:28:28.948Z,10.73
2023-04-02T12:31:13.735Z,10.59
2023-04-02T12:33:43.304Z,10.64
2023-04-02T12:36:21.616Z,10.45
2023-04-02T12:38:52.111Z,10.09
2023-04-02T12:41:24.502Z,9.84
2023-04-02T12:43:59.833Z,9.77
2023-04-02T12:46:29.604Z,9.69
2023-04-02T12:49:05.671Z,9.63
2023-04-02T12:51:37.086Z,9.71
2023-04-02T12:54:06.356Z,9.67
2023-04-02T12:56:34.722Z,9.59
2023-04-02T12:59:03.499Z,9.63
2023-04-02T13:01:34.081Z,9.46
2023-04-02T13:04:07.342Z,9.40
2023-04-02T13:06:37.888Z,9.49
2023-04-02T13:09:08.120Z,9.59
2023-04-02T13:11:38.404Z,9.66
2023-04-02T13:14:08.776Z,9.81
2023-04-02T13:16:40.942Z,9.87
2023-04-02T13:19:30.931Z,9.81
2023-04-02T13:22:02.513Z,9.75
2023-04-02T13:24:32.658Z,9.88
2023-04-02T13:27:02.742Z,9.87
2023-04-02T13:29:32.216Z,9.75
2023-04-02T13:32:06.323Z,9.84
2023-04-02T13:34:35.227Z,9.88
2023-04-02T13:37:05.074Z,9.80
2023-04-02T13:39:33.572Z,9.84
2023-04-02T13:42:08.013Z,9.88
2023-04-02T13:44:37.246Z,9.79
2023-04-02T13:47:05.791Z,9.87
2023-04-02T13:49:34.602Z,9.92
2023-04-02T13:52:08.858Z,9.98
2023-04-02T13:54:45.346Z,9.94
2023-04-02T13:57:14.284Z,10.03
2023-04-02T13:59:42.683Z,9.95
2023-04-02T14:02:12.937Z,10.03
2023-04-02T14:04:44.406Z,9.84
2023-04-02T14:07:23.401Z,9.85
2023-04-02T14:10:01.961Z,9.96
2023-04-02T14:12:47.582Z,9.94
2023-04-02T14:15:23.532Z,9.88
2023-04-02T14:18:11.215Z,9.81
2023-04-02T14:20:44.466Z,9.90
2023-04-02T14:23:29.044Z,9.88
2023-04-02T14:25:59.173Z,9.94
2023-04-02T14:28:38.300Z,9.80
2023-04-02T14:31:13.027Z,9.86
2023-04-02T14:33:49.971Z,9.88
2023-04-02T14:36:23.722Z,9.85
2023-04-02T14:38:57.784Z,9.92
2023-04-02T14:41:33.188Z,9.95
2023-04-02T14:44:03.548Z,9.86
2023-04-02T14:46:36.869Z,9.84
2023-04-02T14:49:11.639Z,9.90
2023-04-02T14:51:43.532Z,9.93
2023-04-02T14:54:17.098Z,9.94
2023-04-02T14:56:48.555Z,9.91
2023-04-02T14:59:27.336Z,9.87
2023-04-02T15:02:00.273Z,9.97
2023-04-02T15:04:32.661Z,9.87
2023-04-02T15:07:05.077Z,9.86
2023-04-02T15:09:38.556Z,9.82
2023-04-02T15:12:08.936Z,9.84
2023-04-02T15:14:40.915Z,9.78
2023-04-02T15:17:12.080Z,9.76
2023-04-02T15:19:41.221Z,9.72
2023-04-02T15:22:19.428Z,9.78
2023-04-02T15:24:56.286Z,9.72
2023-04-02T15:27:36.664Z,9.68
2023-04-02T15:30:11.377Z,9.65
2023-04-02T15:32:40.067Z,9.66
2023-04-02T15:35:20.636Z,9.67
2023-04-02T15:38:00.056Z,9.61
2023-04-02T15:40:55.300Z,9.65
2023-04-02T15:43:28.031Z,9.59
2023-04-02T15:46:06.423Z,9.61
2023-04-02T15:48:56.019Z,9.64
2023-04-02T15:51:51.802Z,9.67
2023-04-02T15:54:41.705Z,9.55
2023-04-02T15:57:24.461Z,9.64
2023-04-02T16:00:11.446Z,9.57
2023-04-02T16:03:18.482Z,9.61
2023-04-02T16:05:59.314Z,9.58
2023-04-02T16:08:38.373Z,9.57
2023-04-02T16:11:11.156Z,9.54
2023-04-02T16:13:42.510Z,9.53
2023-04-02T16:16:14.409Z,9.50
2023-04-02T16:18:49.429Z,9.43
2023-04-02T16:21:23.250Z,9.38
2023-04-02T16:23:52.162Z,9.41
2023-04-02T16:26:34.082Z,9.39
2023-04-02T16:29:25.045Z,9.42
2023-04-02T16:32:03.838Z,9.38
2023-04-02T16:34:39.266Z,9.38
2023-04-02T16:37:13.967Z,9.38
2023-04-02T16:39:48.368Z,9.34
2023-04-02T16:42:29.206Z,9.32
2023-04-02T16:45:10.606Z,9.31
2023-04-02T16:47:49.853Z,9.24
2023-04-02T16:50:27.642Z,9.27
2023-04-02T16:53:01.344Z,9.22
2023-04-02T16:55:39.913Z,9.21
2023-04-02T16:58:24.475Z,9.17
2023-04-02T17:00:57.587Z,9.18
2023-04-02T17:03:48.014Z,9.10
2023-04-02T17:06:24.091Z,9.04
2023-04-02T17:08:56.897Z,9.04
2023-04-02T17:11:26.819Z,9.00
2023-04-02T17:14:06.243Z,8.94
2023-04-02T17:16:45.486Z,9.05
2023-04-02T17:19:16.250Z,9.01
2023-04-02T17:21:47.513Z,8.99
2023-04-02T17:24:23.063Z,8.98
2023-04-02T17:26:53.172Z,8.93
2023-04-02T17:29:25.815Z,8.94
2023-04-02T17:32:01.271Z,8.97
2023-04-02T17:34:30.794Z,9.01
2023-04-02T17:37:06.471Z,9.00
2023-04-02T17:39:42.170Z,8.95
2023-04-02T17:42:26.660Z,8.97
2023-04-02T17:45:02.691Z,8.97
2023-04-02T17:47:41.687Z,8.98
2023-04-02T17:50:29.308Z,8.99
2023-04-02T17:53:00.130Z,8.96
2023-04-02T17:55:40.569Z,8.95
2023-04-02T17:58:18.334Z,8.97
2023-04-02T18:00:55.553Z,8.89
2023-04-02T18:03:44.244Z,8.93
2023-04-02T18:06:17.446Z,8.92
2023-04-02T18:08:55.385Z,8.96
2023-04-02T18:11:30.056Z,8.95
2023-04-02T18:14:00.147Z,8.93
2023-04-02T18:16:45.097Z,8.90
2023-04-02T18:19:25.518Z,8.93
2023-04-02T18:21:59.905Z,8.99
2023-04-02T18:24:49.725Z,9.03
2023-04-02T18:27:33.436Z,8.98
2023-04-02T18:30:09.455Z,8.99
2023-04-02T18:33:06.914Z,8.97
2023-04-02T18:35:44.762Z,9.01
2023-04-02T18:38:23.002Z,8.89
2023-04-02T18:41:04.348Z,8.82
2023-04-02T18:43:45.383Z,8.92
2023-04-02T18:46:24.581Z,8.92
2023-04-02T18:48:58.016Z,8.87
2023-04-02T18:51:31.055Z,8.87
2023-04-02T18:54:08.762Z,8.86
2023-04-02T18:56:38.696Z,8.79
2023-04-02T18:59:17.876Z,8.81
2023-04-02T19:01:49.940Z,8.82
2023-04-02T19:04:21.780Z,8.79
2023-04-02T19:06:54.872Z,8.78
2023-04-02T19:09:25.837Z,8.83
2023-04-02T19:11:54.669Z,8.82
2023-04-02T19:14:24.912Z,8.88
2023-04-02T19:17:01.829Z,8.81
2023-04-02T19:19:31.891Z,8.85
2023-04-02T19:22:12.518Z,8.74
2023-04-02T19:25:01.598Z,8.77
2023-04-02T19:27:33.789Z,8.76
2023-04-02T19:30:11.766Z,8.80
2023-04-02T19:32:46.126Z,8.75
2023-04-02T19:35:21.995Z,8.80
2023-04-02T19:37:58.058Z,8.69
2023-04-02T19:40:33.961Z,8.71
2023-04-02T19:43:02.887Z,8.65
2023-04-02T19:45:35.132Z,8.71
2023-04-02T19:48:11.501Z,8.54
2023-04-02T19:50:41.671Z,8.53
2023-04-02T19:53:11.864Z,8.50
2023-04-02T19:55:41.063Z,8.51
2023-04-02T19:58:19.497Z,8.49
2023-04-02T20:00:48.598Z,8.49
2023-04-02T20:03:17.134Z,8.46
2023-04-02T20:05:45.731Z,8.47
2023-04-02T20:08:15.850Z,8.39
2023-04-02T20:10:44.874Z,8.60
2023-04-02T20:13:13.257Z,8.54
2023-04-02T20:15:42.364Z,8.54
2023-04-02T20:18:11.180Z,8.50
2023-04-02T20:20:40.302Z,8.42
2023-04-02T20:23:09.310Z,8.31
2023-04-02T20:25:39.161Z,8.29
2023-04-02T20:28:09.014Z,8.33
2023-04-02T20:30:39.276Z,8.28
2023-04-02T20:33:10.451Z,8.33
2023-04-02T20:35:39.189Z,8.24
2023-04-02T20:38:08.471Z,8.32
2023-04-02T20:40:39.812Z,8.23
2023-04-02T20:43:08.913Z,8.20
2023-04-02T20:45:38.198Z,8.20
2023-04-02T20:48:07.322Z,8.17
2023-04-02T20:50:36.333Z,8.10
2023-04-02T20:53:05.068Z,8.15
2023-04-02T20:55:33.733Z,8.15
2023-04-02T20:58:03.528Z,8.15
2023-04-02T21:00:33.773Z,8.09
2023-04-02T21:03:02.691Z,8.23
2023-04-02T21:05:31.418Z,8.23
2023-04-02T21:08:03.053Z,8.14
2023-04-02T21:10:31.528Z,8.09
2023-04-02T21:12:59.867Z,8.12
2023-04-02T21:15:29.820Z,8.15
2023-04-02T21:17:58.429Z,8.02
2023-04-02T21:20:27.287Z,8.08
2023-04-02T21:22:55.727Z,8.08
2023-04-02T21:25:24.149Z,8.03
2023-04-02T21:27:52.544Z,8.07
2023-04-02T21:30:21.379Z,8.07
2023-04-02T21:32:51.590Z,8.14
2023-04-02T21:35:20.276Z,8.05
2023-04-02T21:37:48.721Z,8.05
2023-04-02T21:40:20.092Z,8.00
2023-04-02T21:42:48.616Z,7.98
2023-04-02T21:45:17.527Z,8.00
2023-04-02T21:47:46.124Z,7.95
2023-04-02T21:50:15.972Z,7.89
2023-04-02T21:52:44.709Z,7.86
2023-04-02T21:55:13.416Z,7.80
2023-04-02T21:57:42.382Z,7.77
2023-04-02T22:00:12.540Z,7.74
2023-04-02T22:02:41.016Z,7.72
2023-04-02T22:05:09.796Z,7.72
2023-04-02T22:07:40.167Z,7.58
2023-04-02T22:10:10.198Z,7.62
2023-04-02T22:12:38.897Z,7.58
2023-04-02T22:15:10.799Z,7.60
2023-04-02T22:17:39.425Z,7.54
2023-04-02T22:20:09.453Z,7.50
2023-04-02T22:22:39.567Z,7.48
2023-04-02T22:25:08.964Z,7.41
2023-04-02T22:27:37.566Z,7.32
2023-04-02T22:30:07.374Z,7.45
2023-04-02T22:32:37.118Z,7.46
2023-04-02T22:35:05.934Z,7.36
2023-04-02T22:37:34.501Z,7.45
2023-04-02T22:40:04.714Z,7.48
2023-04-02T22:42:35.045Z,7.49
2023-04-02T22:45:04.970Z,7.36
2023-04-02T22:47:33.332Z,7.47
2023-04-02T22:50:02.153Z,7.37
2023-04-02T22:52:31.497Z,7.35
2023-04-02T22:54:59.958Z,7.34
2023-04-02T22:57:29.965Z,7.36
2023-04-02T22:59:58.470Z,7.41
2023-04-02T23:02:27.613Z,7.39
2023-04-02T23:04:56.230Z,7.44
2023-04-02T23:07:24.659Z,7.46
2023-04-02T23:09:53.234Z,7.41
2023-04-02T23:12:21.713Z,7.55
2023-04-02T23:14:51.862Z,7.47
2023-04-02T23:17:20.532Z,7.41
2023-04-02T23:19:49.400Z,7.40
2023-04-02T23:22:17.782Z,7.45
2023-04-02T23:24:46.165Z,7.41
2023-04-02T23:27:14.691Z,7.38
2023-04-02T23:29:44.904Z,7.45
2023-04-02T23:32:14.740Z,7.41
2023-04-02T23:34:43.320Z,7.38
2023-04-02T23:37:11.695Z,7.37
2023-04-02T23:39:40.175Z,7.43
2023-04-02T23:42:08.594Z,7.47
2023-04-02T23:44:37.152Z,7.53
2023-04-02T23:47:06.021Z,7.51
2023-04-02T23:49:36.015Z,7.42
2023-04-02T23:52:04.603Z,7.34
2023-04-02T23:54:33.139Z,7.27
2023-04-02T23:57:01.941Z,7.23
2023-04-02T23:59:30.580Z,7.23
